Time;durP1;ratioP1;P1;durP2;ratioP2;P2;SDS_P1;SDS_P2;PMS_P1;PMS_P2;Temp;Humidity;BMP_temperature;BMP_pressure;BME280_temperature;BME280_humidity;BME280_pressure;Samples;Min_cycle;Max_cycle;Signal;HPM_P1;HPM_P2
2022/07/21 00:00:59;;;;;;;5.60;5.20;;;;;25.40;100738.00;;;;2078706;28;21173;-54
2022/07/21 00:01:59;;;;;;;6.50;5.40;;;;;25.40;100740.00;;;;2078342;28;20698;-54
2022/07/21 00:02:59;;;;;;;5.93;5.43;;;;;25.40;100752.00;;;;2078471;28;20971;-54
2022/07/21 00:04:00;;;;;;;6.40;5.80;;;;;25.40;100749.00;;;;2075803;28;20884;-53
2022/07/21 00:05:00;;;;;;;6.70;6.13;;;;;25.40;100747.00;;;;2078469;28;20243;-53
2022/07/21 00:06:01;;;;;;;6.60;5.97;;;;;25.40;100754.00;;;;2078758;28;20521;-51
2022/07/21 00:07:01;;;;;;;6.87;6.00;;;;;25.40;100765.00;;;;2086478;28;20225;-55
2022/07/21 00:08:01;;;;;;;7.40;6.40;;;;;25.40;100759.00;;;;2084426;28;20314;-53
2022/07/21 00:09:02;;;;;;;6.30;5.73;;;;;25.40;100748.00;;;;2083350;28;20220;-52
2022/07/21 00:10:02;;;;;;;7.63;6.83;;;;;25.30;100744.00;;;;2078291;28;20210;-53
2022/07/21 00:11:03;;;;;;;6.67;5.97;;;;;25.30;100738.00;;;;2078262;28;20694;-53
2022/07/21 00:12:04;;;;;;;9.43;6.70;;;;;25.30;100731.00;;;;2078767;28;20462;-53
2022/07/21 00:13:04;;;;;;;6.80;6.10;;;;;25.30;100739.00;;;;2079082;28;20213;-54
2022/07/21 00:14:05;;;;;;;7.90;7.00;;;;;25.30;100739.00;;;;2079958;28;20468;-52
2022/07/21 00:15:06;;;;;;;8.02;6.50;;;;;25.30;100732.00;;;;2079608;28;20301;-54
2022/07/21 00:16:06;;;;;;;8.13;7.00;;;;;25.30;100741.00;;;;2078136;28;20217;-52
2022/07/21 00:17:07;;;;;;;7.70;6.30;;;;;25.20;100744.00;;;;2079889;28;20629;-53
2022/07/21 00:18:07;;;;;;;8.27;7.37;;;;;25.20;100746.00;;;;2079253;28;20303;-53
2022/07/21 00:19:08;;;;;;;7.63;7.03;;;;;25.20;100740.00;;;;2080024;28;20248;-54
2022/07/21 00:20:09;;;;;;;7.50;6.70;;;;;25.20;100741.00;;;;2079792;28;20206;-54
2022/07/21 00:21:09;;;;;;;7.57;6.73;;;;;25.20;100736.00;;;;2080233;28;20213;-53
2022/07/21 00:22:09;;;;;;;8.57;7.23;;;;;25.20;100727.00;;;;2080030;28;20836;-54
2022/07/21 00:23:10;;;;;;;8.00;7.07;;;;;25.20;100723.00;;;;2079775;28;20201;-53
2022/07/21 00:24:10;;;;;;;7.97;7.17;;;;;25.20;100719.00;;;;2079901;28;20300;-53
2022/07/21 00:25:13;;;;;;;8.30;7.30;;;;;25.20;100712.00;;;;2079936;28;20225;-54
2022/07/21 00:26:15;;;;;;;7.05;6.45;;;;;25.20;100713.00;;;;2079842;28;20218;-54
2022/07/21 00:27:15;;;;;;;7.45;6.75;;;;;25.20;100712.00;;;;2079532;28;20213;-53
2022/07/21 00:28:15;;;;;;;8.83;6.90;;;;;25.20;100705.00;;;;2079582;28;20240;-53
2022/07/21 00:29:16;;;;;;;7.83;7.03;;;;;25.20;100698.00;;;;2079844;28;20206;-53
2022/07/21 00:30:16;;;;;;;7.17;6.57;;;;;25.20;100701.00;;;;2080066;28;20214;-54
2022/07/21 00:31:16;;;;;;;7.73;6.43;;;;;25.20;100693.00;;;;2080031;28;20222;-54
2022/07/21 00:32:17;;;;;;;8.10;6.90;;;;;25.20;100690.00;;;;2079753;28;20236;-54
2022/07/21 00:33:17;;;;;;;8.07;7.37;;;;;25.20;100694.00;;;;2079212;28;20222;-54
2022/07/21 00:34:17;;;;;;;7.30;6.23;;;;;25.20;100690.00;;;;2078657;28;20217;-53
2022/07/21 00:35:18;;;;;;;7.93;7.13;;;;;25.20;100696.00;;;;2079300;28;20214;-52
2022/07/21 00:36:19;;;;;;;8.87;6.80;;;;;25.10;100692.00;;;;2079228;28;20237;-54
2022/07/21 00:37:19;;;;;;;7.50;6.80;;;;;25.10;100687.00;;;;2079036;28;20224;-53
2022/07/21 00:38:20;;;;;;;7.60;6.87;;;;;25.10;100667.00;;;;2082539;28;21594;-53
2022/07/21 00:39:20;;;;;;;7.77;6.97;;;;;25.10;100689.00;;;;2088121;28;20338;-54
2022/07/21 00:40:20;;;;;;;8.10;7.30;;;;;25.10;100694.00;;;;2087928;28;20315;-53
2022/07/21 00:41:21;;;;;;;7.60;6.90;;;;;25.10;100681.00;;;;2088143;28;20677;-54
2022/07/21 00:42:25;;;;;;;8.30;7.50;;;;;25.10;100687.00;;;;2087997;28;20755;-53
2022/07/21 00:43:26;;;;;;;8.60;7.80;;;;;25.10;100692.00;;;;2087770;28;20217;-54
2022/07/21 00:44:26;;;;;;;8.40;7.40;;;;;25.10;100694.00;;;;2087176;28;20244;-53
2022/07/21 00:45:27;;;;;;;8.60;6.53;;;;;25.10;100689.00;;;;2087095;28;20216;-53
2022/07/21 00:46:27;;;;;;;9.10;7.43;;;;;25.10;100692.00;;;;2088055;28;20267;-54
2022/07/21 00:47:28;;;;;;;7.70;7.00;;;;;25.10;100689.00;;;;2086543;28;20250;-54
2022/07/21 00:48:29;;;;;;;8.40;7.60;;;;;25.10;100699.00;;;;2088011;28;20228;-54
2022/07/21 00:49:29;;;;;;;7.83;7.13;;;;;25.10;100698.00;;;;2087860;28;20482;-53
2022/07/21 00:50:29;;;;;;;8.33;7.53;;;;;25.10;100703.00;;;;2088040;28;20271;-53
2022/07/21 00:51:30;;;;;;;7.33;6.67;;;;;25.10;100700.00;;;;2087366;28;20217;-53
2022/07/21 00:52:30;;;;;;;7.90;7.13;;;;;25.10;100712.00;;;;2086988;28;20270;-54
2022/07/21 00:53:30;;;;;;;8.23;7.20;;;;;25.10;100705.00;;;;2088103;28;20208;-52
2022/07/21 00:54:31;;;;;;;8.10;7.40;;;;;25.10;100681.00;;;;2087903;28;20228;-53
2022/07/21 00:55:31;;;;;;;7.90;7.20;;;;;24.00;100701.00;;;;2086044;28;20216;-54
2022/07/21 00:56:31;;;;;;;7.67;7.07;;;;;25.10;100699.00;;;;2087603;28;20220;-53
2022/07/21 00:57:32;;;;;;;7.37;6.67;;;;;25.10;100704.00;;;;2086182;28;20216;-53
2022/07/21 00:58:32;;;;;;;7.57;6.97;;;;;25.10;100697.00;;;;2087695;28;20641;-54
2022/07/21 00:59:33;;;;;;;8.70;8.00;;;;;25.10;100703.00;;;;2087265;28;20209;-54
2022/07/21 01:00:33;;;;;;;8.43;7.60;;;;;25.10;100702.00;;;;2087251;28;20600;-53
2022/07/21 01:01:33;;;;;;;8.53;7.80;;;;;25.10;100700.00;;;;2087822;28;20845;-54
2022/07/21 01:02:36;;;;;;;8.40;7.43;;;;;25.10;100702.00;;;;2087872;28;20232;-53
2022/07/21 01:03:37;;;;;;;7.85;7.22;;;;;25.10;100698.00;;;;2087202;28;20213;-54
2022/07/21 01:04:37;;;;;;;10.00;7.60;;;;;25.10;100707.00;;;;2086026;28;20282;-53
2022/07/21 01:05:38;;;;;;;8.00;7.27;;;;;25.10;100709.00;;;;2087179;28;20254;-54
2022/07/21 01:06:38;;;;;;;9.77;7.93;;;;;25.00;100682.00;;;;2086830;28;20286;-53
2022/07/21 01:07:42;;;;;;;7.60;7.00;;;;;25.00;100703.00;;;;2069711;28;20221;-54
2022/07/21 01:08:43;;;;;;;8.60;7.80;;;;;25.00;100718.00;;;;2071805;28;20218;-54
2022/07/21 01:09:43;;;;;;;9.13;8.27;;;;;25.00;100714.00;;;;2087079;28;20663;-52
2022/07/21 01:10:43;;;;;;;7.87;7.17;;;;;25.00;100714.00;;;;2087155;28;20205;-53
2022/07/21 01:11:44;;;;;;;7.37;6.77;;;;;25.00;100709.00;;;;2087148;28;20213;-53
2022/07/21 01:12:44;;;;;;;8.00;7.40;;;;;25.00;100705.00;;;;2087415;28;20239;-53
2022/07/21 01:13:44;;;;;;;8.27;7.57;;;;;25.00;100705.00;;;;2087532;28;20201;-52
2022/07/21 01:14:45;;;;;;;8.63;7.80;;;;;25.00;100699.00;;;;2087024;28;20205;-53
2022/07/21 01:15:45;;;;;;;9.00;8.20;;;;;25.00;100705.00;;;;2070388;28;20237;-53
2022/07/21 01:16:45;;;;;;;8.43;7.60;;;;;25.00;100703.00;;;;2077743;28;20209;-53
2022/07/21 01:17:46;;;;;;;8.30;7.60;;;;;24.90;100765.00;;;;2085838;28;20209;-52
2022/07/21 01:18:46;;;;;;;8.47;7.67;;;;;25.00;100713.00;;;;2087013;28;20251;-52
2022/07/21 01:19:46;;;;;;;7.80;7.10;;;;;24.90;100709.00;;;;2086756;28;20215;-53
2022/07/21 01:20:51;;;;;;;8.60;7.80;;;;;24.90;100706.00;;;;2086068;28;20205;-53
2022/07/21 01:21:52;;;;;;;9.30;7.95;;;;;24.90;100704.00;;;;2086667;28;20220;-53
2022/07/21 01:22:53;;;;;;;8.53;7.70;;;;;24.90;100709.00;;;;2087296;28;20282;-53
2022/07/21 01:23:54;;;;;;;7.60;6.90;;;;;25.00;100709.00;;;;2087053;28;20213;-54
2022/07/21 01:24:54;;;;;;;8.70;8.00;;;;;25.00;100707.00;;;;2087050;28;20237;-54
2022/07/21 01:25:54;;;;;;;8.17;7.37;;;;;24.90;100702.00;;;;2087063;28;20245;-54
2022/07/21 01:26:55;;;;;;;7.77;7.07;;;;;25.00;100710.00;;;;2087567;28;20205;-53
2022/07/21 01:27:55;;;;;;;8.40;7.70;;;;;25.00;100704.00;;;;2086305;28;20205;-54
2022/07/21 01:28:56;;;;;;;7.97;7.17;;;;;24.90;100708.00;;;;2087096;28;20265;-54
2022/07/21 01:29:56;;;;;;;8.40;7.60;;;;;24.90;100717.00;;;;2087368;28;20270;-53
2022/07/21 01:30:57;;;;;;;7.80;7.20;;;;;25.00;100716.00;;;;2087392;28;20243;-52
2022/07/21 01:31:57;;;;;;;8.50;7.80;;;;;24.90;100721.00;;;;2087643;28;20205;-53
2022/07/21 01:32:58;;;;;;;8.00;7.20;;;;;24.90;100727.00;;;;2087441;28;20220;-52
2022/07/21 01:33:58;;;;;;;8.03;7.33;;;;;24.90;100732.00;;;;2085302;28;20211;-54
2022/07/21 01:34:58;;;;;;;8.33;7.67;;;;;24.90;100734.00;;;;2087637;28;20254;-53
2022/07/21 01:35:58;;;;;;;8.20;7.50;;;;;24.90;100737.00;;;;2087399;28;20236;-54
2022/07/21 01:36:59;;;;;;;8.10;7.33;;;;;24.90;100737.00;;;;2087790;28;20231;-54
2022/07/21 01:37:59;;;;;;;7.90;7.13;;;;;24.90;100737.00;;;;2086724;28;20215;-53
2022/07/21 01:41:37;;;;;;;8.20;7.50;;;;;24.90;100746.00;;;;2087565;28;20240;-53
2022/07/21 01:42:38;;;;;;;8.10;7.30;;;;;24.90;100743.00;;;;2087419;28;20662;-53
2022/07/21 01:43:38;;;;;;;7.43;6.83;;;;;24.90;100742.00;;;;2087589;28;20216;-54
2022/07/21 01:44:38;;;;;;;8.20;7.50;;;;;24.90;100747.00;;;;2086087;28;20217;-53
2022/07/21 01:45:40;;;;;;;8.07;7.37;;;;;24.90;100768.00;;;;2078362;28;20302;-54
2022/07/21 01:46:43;;;;;;;8.40;7.60;;;;;24.90;100739.00;;;;2078006;28;20222;-53
2022/07/21 01:47:44;;;;;;;8.40;7.68;;;;;24.90;100745.00;;;;2074038;28;20547;-52
2022/07/21 01:48:44;;;;;;;8.10;7.40;;;;;24.90;100732.00;;;;2078827;28;20322;-54
2022/07/21 01:49:44;;;;;;;8.73;7.97;;;;;24.90;100719.00;;;;2079018;28;20213;-53
2022/07/21 01:50:45;;;;;;;8.33;7.53;;;;;24.90;100731.00;;;;2078166;28;20241;-53
2022/07/21 01:51:45;;;;;;;8.50;7.70;;;;;24.90;100734.00;;;;2077226;28;20278;-54
2022/07/21 01:52:45;;;;;;;8.50;7.33;;;;;24.80;100729.00;;;;2078670;28;20217;-54
2022/07/21 01:53:46;;;;;;;8.90;8.10;;;;;24.80;100735.00;;;;2078754;28;20209;-53
2022/07/21 01:54:46;;;;;;;8.37;7.50;;;;;24.80;100735.00;;;;2078904;28;20216;-53
2022/07/21 01:55:46;;;;;;;8.57;7.33;;;;;24.80;100732.00;;;;2078764;28;20210;-53
2022/07/21 01:56:47;;;;;;;8.00;7.20;;;;;24.80;100729.00;;;;2069353;28;20225;-54
2022/07/21 01:57:47;;;;;;;8.53;7.70;;;;;24.80;100727.00;;;;2093736;28;20212;-53
2022/07/21 01:58:48;;;;;;;7.77;6.97;;;;;24.80;100719.00;;;;2093909;28;20216;-54
2022/07/21 01:59:48;;;;;;;8.03;7.10;;;;;24.80;100758.00;;;;2083155;28;20212;-53
2022/07/21 02:00:49;;;;;;;8.10;7.50;;;;;24.80;100723.00;;;;2086133;28;20972;-53
2022/07/21 02:01:49;;;;;;;8.30;7.47;;;;;24.90;100726.00;;;;2086974;28;20752;-53
2022/07/21 02:02:49;;;;;;;7.80;7.10;;;;;24.90;100724.00;;;;2086945;28;20244;-53
2022/07/21 02:03:50;;;;;;;7.17;6.57;;;;;24.80;100727.00;;;;2087017;28;20279;-53
2022/07/21 02:04:50;;;;;;;8.20;7.40;;;;;24.80;100725.00;;;;2086850;28;20224;-54
2022/07/21 02:05:50;;;;;;;9.70;7.20;;;;;24.80;100727.00;;;;2086896;28;20217;-53
2022/07/21 02:06:51;;;;;;;6.47;5.87;;;;;24.90;100720.00;;;;2087041;28;20213;-52
2022/07/21 02:07:51;;;;;;;7.07;6.47;;;;;24.90;100721.00;;;;2086257;28;20286;-53
2022/07/21 02:08:51;;;;;;;7.47;6.70;;;;;24.90;100723.00;;;;2087260;28;20213;-53
2022/07/21 02:09:52;;;;;;;6.53;5.93;;;;;24.90;100730.00;;;;2087420;28;20263;-54
2022/07/21 02:10:52;;;;;;;6.27;5.77;;;;;24.80;100732.00;;;;2087419;28;20221;-52
2022/07/21 02:11:52;;;;;;;7.10;6.50;;;;;24.80;100728.00;;;;2086071;28;20220;-54
2022/07/21 02:12:53;;;;;;;6.93;6.33;;;;;24.80;100724.00;;;;2084509;28;20739;-53
2022/07/21 02:13:53;;;;;;;6.87;6.20;;;;;24.70;100750.00;;;;2086956;28;20716;-54
2022/07/21 02:14:54;;;;;;;7.43;6.60;;;;;24.70;100730.00;;;;2086879;28;20716;-52
2022/07/21 02:15:54;;;;;;;6.60;6.00;;;;;24.70;100736.00;;;;2087232;28;20739;-53
2022/07/21 02:16:54;;;;;;;6.30;5.80;;;;;24.70;100723.00;;;;2087199;28;20240;-53
2022/07/21 02:17:54;;;;;;;6.80;6.20;;;;;24.70;100732.00;;;;2086178;28;20220;-54
2022/07/21 02:18:55;;;;;;;6.67;5.90;;;;;24.70;100731.00;;;;2087075;28;20212;-54
2022/07/21 02:19:55;;;;;;;6.90;6.20;;;;;24.70;100718.00;;;;2085476;28;20248;-53
2022/07/21 02:20:56;;;;;;;6.40;5.80;;;;;24.70;100726.00;;;;2086592;28;20217;-53
2022/07/21 02:21:56;;;;;;;6.43;5.77;;;;;24.60;100729.00;;;;2087244;28;20213;-54
2022/07/21 02:22:56;;;;;;;6.23;4.90;;;;;24.60;100727.00;;;;2086389;28;20213;-53
2022/07/21 02:23:57;;;;;;;7.07;5.90;;;;;24.60;100725.00;;;;2086952;28;20747;-54
2022/07/21 02:24:57;;;;;;;7.03;5.90;;;;;24.60;100720.00;;;;2086680;28;20697;-52
2022/07/21 02:25:57;;;;;;;6.43;5.73;;;;;24.60;100724.00;;;;2087311;28;20574;-54
2022/07/21 02:26:58;;;;;;;8.30;5.50;;;;;24.60;100723.00;;;;2087242;28;20568;-54
2022/07/21 02:27:58;;;;;;;6.13;5.63;;;;;24.60;100725.00;;;;2086030;28;20568;-52
2022/07/21 02:28:59;;;;;;;5.77;5.17;;;;;24.60;100731.00;;;;2086632;28;20573;-53
2022/07/21 02:29:59;;;;;;;9.13;5.87;;;;;24.60;100724.00;;;;2086699;28;21363;-53
2022/07/21 02:30:59;;;;;;;6.10;5.50;;;;;24.60;100727.00;;;;2087386;28;20197;-53
2022/07/21 02:31:59;;;;;;;7.13;5.47;;;;;24.60;100721.00;;;;2086862;28;20205;-54
2022/07/21 02:33:00;;;;;;;8.67;5.70;;;;;24.50;100719.00;;;;2087006;28;20274;-53
2022/07/21 02:34:01;;;;;;;6.50;5.27;;;;;24.50;100721.00;;;;2087167;28;20224;-53
2022/07/21 02:35:01;;;;;;;5.80;5.20;;;;;24.50;100720.00;;;;2086857;28;20219;-53
2022/07/21 02:36:02;;;;;;;6.33;5.50;;;;;24.50;100721.00;;;;2086968;28;20225;-52
2022/07/21 02:37:02;;;;;;;7.63;5.93;;;;;24.50;100711.00;;;;2087214;28;20217;-53
2022/07/21 02:38:03;;;;;;;7.30;5.43;;;;;24.50;100715.00;;;;2086265;28;20466;-52
2022/07/21 02:39:03;;;;;;;6.70;5.90;;;;;24.50;100718.00;;;;2087303;28;20213;-53
2022/07/21 02:40:04;;;;;;;6.10;5.57;;;;;24.50;100711.00;;;;2086857;28;20565;-54
2022/07/21 02:41:04;;;;;;;6.90;6.13;;;;;24.50;100702.00;;;;2085218;28;20213;-54
2022/07/21 02:42:05;;;;;;;6.20;5.60;;;;;23.80;100711.00;;;;2086860;28;20464;-54
2022/07/21 02:43:05;;;;;;;6.33;5.57;;;;;24.50;100706.00;;;;2086958;28;20692;-53
2022/07/21 02:44:05;;;;;;;7.13;5.37;;;;;24.50;100709.00;;;;2086164;28;20240;-53
2022/07/21 02:45:07;;;;;;;6.30;5.70;;;;;24.50;100711.00;;;;2076447;28;20995;-54
2022/07/21 02:46:07;;;;;;;6.20;5.50;;;;;24.50;100708.00;;;;2086369;28;20232;-54
2022/07/21 02:47:07;;;;;;;6.50;5.90;;;;;24.40;100712.00;;;;2086417;28;20355;-52
2022/07/21 02:48:09;;;;;;;6.70;6.00;;;;;24.50;100715.00;;;;2078754;28;20237;-53
2022/07/21 02:49:10;;;;;;;7.40;5.65;;;;;24.50;100710.00;;;;2078940;28;20201;-53
2022/07/21 02:50:10;;;;;;;5.82;5.32;;;;;24.50;100702.00;;;;2078920;28;20206;-53
2022/07/21 02:51:11;;;;;;;6.47;5.53;;;;;24.40;100702.00;;;;2078931;28;20248;-52
2022/07/21 02:52:11;;;;;;;6.83;5.97;;;;;24.40;100704.00;;;;2078647;28;20218;-54
2022/07/21 02:53:13;;;;;;;5.90;5.30;;;;;24.40;100706.00;;;;2078461;28;20220;-53
2022/07/21 02:54:13;;;;;;;6.85;5.05;;;;;24.40;100705.00;;;;2078766;28;20217;-53
2022/07/21 02:55:14;;;;;;;5.50;5.00;;;;;24.40;100697.00;;;;2078979;28;20278;-54
2022/07/21 02:56:15;;;;;;;6.20;5.67;;;;;24.40;100707.00;;;;2078149;28;20221;-53
2022/07/21 02:57:15;;;;;;;6.00;5.40;;;;;24.40;100714.00;;;;2077873;28;20795;-52
2022/07/21 02:58:23;;;;;;;6.30;5.70;;;;;24.40;100713.00;;;;2084111;28;20213;-54
2022/07/21 02:59:23;;;;;;;6.72;5.78;;;;;24.40;100716.00;;;;2086880;28;20580;-54
2022/07/21 03:00:24;;;;;;;6.00;5.17;;;;;24.30;100715.00;;;;2087109;28;20243;-54
2022/07/21 03:01:24;;;;;;;6.03;5.53;;;;;24.30;100707.00;;;;2086894;28;20219;-53
2022/07/21 03:02:24;;;;;;;5.80;5.30;;;;;24.40;100704.00;;;;2086849;28;20217;-54
2022/07/21 03:03:26;;;;;;;6.03;5.50;;;;;24.30;100709.00;;;;2086659;28;20612;-54
2022/07/21 03:04:26;;;;;;;6.13;5.55;;;;;24.30;100705.00;;;;2086652;28;20236;-54
2022/07/21 03:05:27;;;;;;;7.13;5.57;;;;;24.30;100682.00;;;;2086324;28;20213;-53
2022/07/21 03:06:27;;;;;;;6.67;5.60;;;;;24.30;100714.00;;;;2087255;28;20228;-54
2022/07/21 03:07:27;;;;;;;6.37;5.87;;;;;24.30;100707.00;;;;2086179;28;20209;-54
2022/07/21 03:08:29;;;;;;;5.63;5.13;;;;;24.30;100711.00;;;;2086735;28;20292;-55
2022/07/21 03:09:30;;;;;;;5.50;5.00;;;;;24.30;100740.00;;;;2087134;28;20688;-53
2022/07/21 03:10:31;;;;;;;6.00;5.50;;;;;24.30;100705.00;;;;2087042;28;20232;-54
2022/07/21 03:11:31;;;;;;;7.10;6.47;;;;;24.30;100709.00;;;;2086752;28;21036;-54
2022/07/21 03:12:31;;;;;;;6.77;5.67;;;;;24.30;100695.00;;;;2086966;28;20686;-54
2022/07/21 03:13:32;;;;;;;5.70;5.20;;;;;24.30;100706.00;;;;2086844;28;20627;-54
2022/07/21 03:14:32;;;;;;;7.50;5.27;;;;;24.30;100702.00;;;;2086723;28;20775;-54
2022/07/21 03:15:33;;;;;;;9.07;5.40;;;;;24.30;100710.00;;;;2087036;28;20263;-54
2022/07/21 03:16:33;;;;;;;7.43;5.60;;;;;24.30;100710.00;;;;2086788;28;20300;-55
2022/07/21 03:17:33;;;;;;;6.47;5.83;;;;;24.30;100707.00;;;;2084495;28;20216;-55
2022/07/21 03:18:35;;;;;;;6.20;5.70;;;;;24.30;100705.00;;;;2087084;28;20205;-53
2022/07/21 03:19:36;;;;;;;6.22;5.63;;;;;24.30;100708.00;;;;2086890;28;20212;-53
2022/07/21 03:20:37;;;;;;;6.82;6.03;;;;;24.30;100705.00;;;;2086865;28;20294;-53
2022/07/21 03:21:38;;;;;;;5.90;5.38;;;;;24.30;100699.00;;;;2086741;28;20708;-54
2022/07/21 03:22:38;;;;;;;5.93;5.40;;;;;24.30;100706.00;;;;2086971;28;20216;-54
2022/07/21 03:23:39;;;;;;;6.27;5.77;;;;;24.20;100703.00;;;;2079491;28;20830;-54
2022/07/21 03:24:39;;;;;;;6.23;5.70;;;;;24.20;100693.00;;;;2078418;28;20209;-54
2022/07/21 03:25:39;;;;;;;9.03;6.13;;;;;24.20;100697.00;;;;2078743;28;20213;-54
2022/07/21 03:26:40;;;;;;;6.70;5.73;;;;;24.20;100696.00;;;;2078749;28;20344;-54
2022/07/21 03:27:40;;;;;;;7.63;6.47;;;;;24.20;100690.00;;;;2077630;28;20233;-53
2022/07/21 03:28:41;;;;;;;6.03;5.43;;;;;24.20;100686.00;;;;2078460;28;20224;-53
2022/07/21 03:29:41;;;;;;;6.35;5.85;;;;;23.30;100684.00;;;;2078737;28;20995;-53
2022/07/21 03:30:42;;;;;;;6.33;5.83;;;;;24.20;100684.00;;;;2078813;28;20214;-53
2022/07/21 03:31:42;;;;;;;6.50;6.00;;;;;24.20;100679.00;;;;2078596;28;20216;-53
2022/07/21 03:32:43;;;;;;;6.00;5.50;;;;;24.20;100682.00;;;;2078542;28;20213;-53
2022/07/21 03:33:43;;;;;;;6.20;5.60;;;;;24.20;100681.00;;;;2078560;28;20287;-54
2022/07/21 03:34:45;;;;;;;7.13;6.47;;;;;24.20;100683.00;;;;2078668;28;20214;-54
2022/07/21 03:35:45;;;;;;;7.35;6.65;;;;;24.20;100684.00;;;;2078412;28;20237;-54
2022/07/21 03:36:45;;;;;;;7.00;6.40;;;;;24.20;100685.00;;;;2078152;28;20590;-54
2022/07/21 03:37:48;;;;;;;7.60;6.53;;;;;24.20;100689.00;;;;2084914;28;20209;-53
2022/07/21 03:38:50;;;;;;;6.13;5.53;;;;;24.20;100689.00;;;;2086747;28;20213;-53
2022/07/21 03:39:51;;;;;;;7.13;6.20;;;;;24.20;100686.00;;;;2086769;28;20224;-54
2022/07/21 03:40:51;;;;;;;6.33;5.37;;;;;24.20;100686.00;;;;2086886;28;20215;-54
2022/07/21 03:41:51;;;;;;;6.73;6.03;;;;;24.20;100683.00;;;;2086734;28;20240;-53
2022/07/21 03:42:53;;;;;;;8.17;6.43;;;;;24.20;100692.00;;;;2084312;28;20313;-53
2022/07/21 03:43:53;;;;;;;6.43;5.93;;;;;24.20;100690.00;;;;2086403;28;20217;-53
2022/07/21 03:44:54;;;;;;;6.97;6.27;;;;;24.20;100684.00;;;;2086787;28;20288;-54
2022/07/21 03:45:54;;;;;;;6.43;5.93;;;;;24.20;100693.00;;;;2086813;28;20213;-54
2022/07/21 03:46:56;;;;;;;6.93;6.33;;;;;24.10;100687.00;;;;2087546;28;20216;-53
2022/07/21 03:47:59;;;;;;;7.90;6.18;;;;;24.10;100697.00;;;;2087600;28;20219;-54
2022/07/21 03:49:00;;;;;;;6.70;6.07;;;;;24.10;100691.00;;;;2088275;28;20335;-54
2022/07/21 03:50:00;;;;;;;7.30;6.60;;;;;24.10;100687.00;;;;2088368;28;20295;-54
2022/07/21 03:51:00;;;;;;;6.37;5.87;;;;;24.20;100687.00;;;;2088523;28;20323;-54
2022/07/21 03:52:01;;;;;;;6.20;5.67;;;;;24.20;100685.00;;;;2087491;28;20305;-53
2022/07/21 03:53:01;;;;;;;6.10;5.60;;;;;24.20;100666.00;;;;2088508;28;20220;-53
2022/07/21 03:54:02;;;;;;;7.87;6.23;;;;;24.20;100670.00;;;;2088271;28;20267;-52
2022/07/21 03:55:08;;;;;;;6.40;5.80;;;;;24.10;100666.00;;;;2088133;28;20216;-52
2022/07/21 03:56:08;;;;;;;8.80;6.03;;;;;24.10;100672.00;;;;2082086;28;20231;-54
2022/07/21 03:57:08;;;;;;;7.33;6.63;;;;;24.10;100668.00;;;;2088439;28;20223;-54
2022/07/21 03:58:09;;;;;;;6.40;5.80;;;;;24.10;100659.00;;;;2087596;28;20212;-54
2022/07/21 03:59:09;;;;;;;7.30;6.60;;;;;24.10;100655.00;;;;2088610;28;20271;-53
2022/07/21 04:00:12;;;;;;;7.10;6.40;;;;;24.10;100660.00;;;;2087455;28;20220;-53
2022/07/21 04:01:12;;;;;;;7.05;6.47;;;;;24.10;100659.00;;;;2087555;28;20227;-54
2022/07/21 04:02:12;;;;;;;6.87;6.27;;;;;24.20;100650.00;;;;2088574;28;20542;-54
2022/07/21 04:03:13;;;;;;;6.93;6.33;;;;;24.20;100648.00;;;;2088353;28;20732;-53
2022/07/21 04:04:13;;;;;;;7.57;5.97;;;;;24.20;100648.00;;;;2087531;28;20221;-53
2022/07/21 04:05:14;;;;;;;6.83;6.13;;;;;24.20;100648.00;;;;2086647;28;20576;-53
2022/07/21 04:06:14;;;;;;;6.87;6.27;;;;;24.20;100640.00;;;;2088570;28;20583;-53
2022/07/21 04:07:14;;;;;;;6.43;5.77;;;;;24.20;100636.00;;;;2088036;28;20212;-54
2022/07/21 04:08:15;;;;;;;6.70;6.10;;;;;24.20;100642.00;;;;2087846;28;20291;-54
2022/07/21 04:09:17;;;;;;;5.90;5.40;;;;;24.20;100640.00;;;;2087954;28;20212;-54
2022/07/21 04:10:19;;;;;;;6.75;6.18;;;;;24.20;100637.00;;;;2088330;28;20292;-54
2022/07/21 04:11:20;;;;;;;6.95;6.35;;;;;24.20;100640.00;;;;2088118;28;20213;-54
2022/07/21 04:12:24;;;;;;;7.57;6.80;;;;;24.20;100634.00;;;;2088020;28;20209;-53
2022/07/21 04:13:24;;;;;;;6.90;6.30;;;;;24.20;100637.00;;;;2087400;28;20262;-53
2022/07/21 04:14:24;;;;;;;7.07;6.30;;;;;24.20;100630.00;;;;2087473;28;20216;-53
2022/07/21 04:15:25;;;;;;;7.17;6.57;;;;;24.20;100634.00;;;;2088254;28;20201;-53
2022/07/21 04:16:26;;;;;;;6.57;5.97;;;;;24.20;100630.00;;;;2087461;28;20212;-54
2022/07/21 04:17:27;;;;;;;7.25;6.55;;;;;24.20;100625.00;;;;2087453;28;20338;-53
2022/07/21 04:18:27;;;;;;;7.30;6.60;;;;;24.20;100629.00;;;;2088212;28;20658;-54
2022/07/21 04:19:28;;;;;;;6.43;5.83;;;;;24.20;100625.00;;;;2088355;28;20220;-53
2022/07/21 04:20:29;;;;;;;7.20;6.60;;;;;24.10;100634.00;;;;2087949;28;20217;-53
2022/07/21 04:21:30;;;;;;;7.30;6.70;;;;;24.20;100633.00;;;;2088071;28;20204;-54
2022/07/21 04:22:30;;;;;;;8.70;6.77;;;;;24.10;100630.00;;;;2088274;28;20216;-54
2022/07/21 04:23:31;;;;;;;7.17;6.50;;;;;24.10;100646.00;;;;2088108;28;20219;-54
2022/07/21 04:24:31;;;;;;;7.30;6.70;;;;;24.10;100632.00;;;;2087969;28;20221;-55
2022/07/21 04:25:32;;;;;;;7.37;6.67;;;;;24.20;100636.00;;;;2087950;28;20220;-53
2022/07/21 04:26:32;;;;;;;8.47;7.33;;;;;24.20;100639.00;;;;2088214;28;20228;-53
2022/07/21 04:27:33;;;;;;;7.20;6.60;;;;;24.20;100634.00;;;;2087279;28;20304;-53
2022/07/21 04:28:33;;;;;;;7.20;6.60;;;;;24.10;100624.00;;;;2087663;28;20220;-53
2022/07/21 04:29:34;;;;;;;8.00;7.20;;;;;24.20;100636.00;;;;2088170;28;20887;-53
2022/07/21 04:30:34;;;;;;;7.67;6.97;;;;;24.10;100636.00;;;;2087948;28;20220;-54
2022/07/21 04:31:34;;;;;;;7.33;6.70;;;;;24.10;100634.00;;;;2088067;28;20216;-54
2022/07/21 04:32:35;;;;;;;10.00;7.77;;;;;24.10;100642.00;;;;2087947;28;20228;-53
2022/07/21 04:33:35;;;;;;;7.97;7.27;;;;;24.10;100677.00;;;;2087944;28;20219;-54
2022/07/21 04:34:35;;;;;;;7.73;7.10;;;;;24.10;100647.00;;;;2088049;28;20247;-54
2022/07/21 04:35:36;;;;;;;7.10;6.50;;;;;24.10;100645.00;;;;2087942;28;20221;-54
2022/07/21 04:36:36;;;;;;;10.67;7.07;;;;;24.10;100647.00;;;;2087786;28;20216;-53
2022/07/21 04:37:36;;;;;;;7.73;7.03;;;;;24.10;100640.00;;;;2085624;28;20252;-54
2022/07/21 04:38:37;;;;;;;7.53;6.83;;;;;24.10;100649.00;;;;2088125;28;20213;-54
2022/07/21 04:39:37;;;;;;;7.83;7.13;;;;;24.10;100639.00;;;;2087913;28;20658;-53
2022/07/21 04:40:37;;;;;;;8.40;7.50;;;;;24.10;100645.00;;;;2087682;28;20236;-54
2022/07/21 04:41:38;;;;;;;8.17;7.37;;;;;24.10;100642.00;;;;2088096;28;20213;-53
2022/07/21 04:42:38;;;;;;;8.57;7.77;;;;;24.20;100638.00;;;;2087962;28;20213;-53
2022/07/21 04:43:38;;;;;;;9.00;8.10;;;;;24.20;100646.00;;;;2087555;28;20220;-53
2022/07/21 04:44:39;;;;;;;7.43;6.83;;;;;24.20;100647.00;;;;2086280;28;20220;-54
2022/07/21 04:45:39;;;;;;;8.83;8.03;;;;;24.10;100645.00;;;;2088002;28;20224;-54
2022/07/21 04:46:39;;;;;;;9.30;8.33;;;;;24.20;100644.00;;;;2087880;28;20634;-54
2022/07/21 04:47:43;;;;;;;7.80;7.10;;;;;24.20;100646.00;;;;2086864;28;20556;-54
2022/07/21 04:48:43;;;;;;;7.90;7.30;;;;;24.30;100644.00;;;;2086520;28;20583;-53
2022/07/21 04:49:44;;;;;;;9.10;7.50;;;;;24.30;100649.00;;;;2084979;28;20208;-54
2022/07/21 04:50:44;;;;;;;7.30;6.60;;;;;24.30;100650.00;;;;2086252;28;20553;-54
2022/07/21 04:51:44;;;;;;;7.30;6.70;;;;;24.20;100644.00;;;;2079615;28;20213;-53
2022/07/21 04:52:45;;;;;;;9.03;8.33;;;;;24.30;100645.00;;;;2079768;28;20263;-53
2022/07/21 04:53:45;;;;;;;9.30;8.50;;;;;24.20;100644.00;;;;2079353;28;20213;-54
2022/07/21 04:54:45;;;;;;;7.60;6.90;;;;;24.30;100647.00;;;;2078052;28;20212;-54
2022/07/21 04:55:46;;;;;;;9.30;8.40;;;;;24.20;100654.00;;;;2079736;28;20750;-54
2022/07/21 04:56:46;;;;;;;9.03;8.23;;;;;24.20;100648.00;;;;2079743;28;20233;-54
2022/07/21 04:57:48;;;;;;;9.67;8.77;;;;;24.20;100652.00;;;;2078129;28;20308;-54
2022/07/21 04:58:48;;;;;;;10.40;9.50;;;;;24.20;100645.00;;;;2084275;28;20212;-55
2022/07/21 04:59:49;;;;;;;9.97;9.17;;;;;24.20;100643.00;;;;2088116;28;20228;-53
2022/07/21 05:00:49;;;;;;;10.53;9.53;;;;;24.20;100647.00;;;;2087775;28;20307;-54
2022/07/21 05:01:49;;;;;;;9.97;8.97;;;;;24.20;100649.00;;;;2087749;28;20220;-54
2022/07/21 05:02:50;;;;;;;10.07;9.10;;;;;24.20;100649.00;;;;2078729;28;20241;-54